Time;durP1;ratioP1;P1;durP2;ratioP2;P2;SDS_P1;SDS_P2;PMS_P1;PMS_P2;Temp;Humidity;BMP_temperature;BMP_pressure;BME280_temperature;BME280_humidity;BME280_pressure;Samples;Min_cycle;Max_cycle;Signal;HPM_P1;HPM_P2
2023/07/08 00:00:15;;;;;;;14.38;3.80;;;26.90;50.40;;;;;;5111996;28;20045;-76
2023/07/08 00:02:41;;;;;;;5.78;3.83;;;26.80;50.30;;;;;;5109504;28;20032;-76
2023/07/08 00:05:12;;;;;;;2.65;1.65;;;26.90;50.30;;;;;;5111245;28;20024;-76
2023/07/08 00:07:39;;;;;;;3.42;2.65;;;26.80;50.20;;;;;;5111735;28;20032;-76
2023/07/08 00:10:15;;;;;;;1.80;1.70;;;26.80;50.30;;;;;;5111832;28;20080;-76
2023/07/08 00:12:42;;;;;;;2.28;1.80;;;26.70;50.20;;;;;;5112226;28;20053;-76
2023/07/08 00:15:09;;;;;;;2.00;1.73;;;26.70;50.30;;;;;;5111037;28;20019;-76
2023/07/08 00:17:35;;;;;;;4.38;2.63;;;26.60;50.30;;;;;;5111029;28;20023;-77
2023/07/08 00:20:01;;;;;;;0.88;0.88;;;26.80;50.30;;;;;;5111272;28;20391;-76
2023/07/08 00:22:27;;;;;;;3.80;3.00;;;26.80;50.50;;;;;;5110005;28;20047;-76
2023/07/08 00:24:54;;;;;;;5.60;3.22;;;26.80;50.30;;;;;;5112240;28;20388;-76
2023/07/08 00:27:20;;;;;;;9.00;2.65;;;26.70;50.30;;;;;;5111884;28;20039;-76
2023/07/08 00:29:45;;;;;;;4.00;3.17;;;26.90;50.20;;;;;;5111393;28;20028;-76
2023/07/08 00:32:14;;;;;;;4.15;2.90;;;26.80;50.20;;;;;;5106166;28;20036;-76
2023/07/08 00:34:41;;;;;;;5.65;3.63;;;26.70;50.20;;;;;;5107952;28;20019;-77
2023/07/08 00:37:13;;;;;;;7.50;3.50;;;26.80;50.20;;;;;;5108550;28;20465;-76
2023/07/08 00:39:40;;;;;;;9.18;3.53;;;26.80;50.20;;;;;;5109533;28;20126;-76
2023/07/08 00:42:16;;;;;;;5.00;3.35;;;26.80;50.20;;;;;;5110412;28;20031;-77
2023/07/08 00:44:44;;;;;;;3.55;3.08;;;26.80;50.20;;;;;;5111506;28;20040;-76
2023/07/08 00:47:12;;;;;;;3.88;3.10;;;26.80;50.20;;;;;;5108129;28;20035;-76
2023/07/08 00:49:55;;;;;;;4.53;3.15;;;26.80;50.20;;;;;;5111801;28;20046;-77
2023/07/08 00:52:29;;;;;;;4.63;2.97;;;26.90;50.20;;;;;;5110383;28;20032;-77
2023/07/08 00:54:59;;;;;;;4.82;3.00;;;26.90;50.20;;;;;;5110716;28;20026;-76
2023/07/08 00:57:30;;;;;;;3.17;2.25;;;26.80;50.20;;;;;;5109412;28;20032;-76
2023/07/08 01:00:04;;;;;;;3.45;2.38;;;26.80;50.20;;;;;;5110008;28;20108;-76
2023/07/08 01:02:34;;;;;;;7.07;2.92;;;26.80;50.20;;;;;;5108681;28;20081;-76
2023/07/08 01:05:11;;;;;;;3.42;2.75;;;27.00;50.80;;;;;;5111847;28;20031;-76
2023/07/08 01:07:41;;;;;;;5.00;3.03;;;26.80;50.20;;;;;;5114701;28;20513;-76
2023/07/08 01:10:12;;;;;;;4.80;2.33;;;26.90;50.40;;;;;;5115743;28;20031;-77
2023/07/08 01:12:47;;;;;;;5.57;2.85;;;26.90;50.40;;;;;;5115328;28;20038;-77
2023/07/08 01:15:14;;;;;;;3.97;2.40;;;26.80;50.30;;;;;;5115346;28;20032;-76
2023/07/08 01:17:43;;;;;;;3.90;2.80;;;26.80;50.50;;;;;;5112994;28;20034;-76
2023/07/08 01:20:13;;;;;;;2.83;1.73;;;26.80;50.50;;;;;;5115075;28;20133;-75
2023/07/08 01:22:41;;;;;;;2.58;2.20;;;26.70;50.50;;;;;;5110479;28;20457;-76
2023/07/08 01:25:08;;;;;;;3.47;2.30;;;26.70;50.50;;;;;;5110433;28;20132;-76
2023/07/08 01:27:41;;;;;;;2.88;2.40;;;26.70;50.50;;;;;;5104150;28;20020;-75
2023/07/08 01:30:07;;;;;;;4.45;1.88;;;26.70;50.50;;;;;;5115143;28;20024;-75
2023/07/08 01:32:43;;;;;;;2.83;2.10;;;26.70;50.60;;;;;;5110847;27;20024;-75
2023/07/08 01:35:11;;;;;;;8.32;2.17;;;26.70;50.80;;;;;;5112035;28;20043;-76
2023/07/08 01:37:42;;;;;;;3.00;2.30;;;26.80;50.60;;;;;;5114776;28;20028;-75
2023/07/08 01:40:30;;;;;;;6.82;2.95;;;26.70;50.60;;;;;;5115226;28;20067;-75
2023/07/08 01:42:57;;;;;;;1.58;1.48;;;26.80;50.50;;;;;;5113689;28;20039;-78
2023/07/08 01:45:26;;;;;;;4.72;2.33;;;26.70;50.50;;;;;;5112755;28;20062;-78
2023/07/08 01:48:14;;;;;;;1.50;1.40;;;26.90;50.50;;;;;;5112096;28;20016;-78
2023/07/08 01:50:49;;;;;;;2.90;2.22;;;26.80;50.50;;;;;;5113701;28;20479;-78
2023/07/08 01:53:19;;;;;;;4.53;2.40;;;26.80;50.50;;;;;;5115004;28;20027;-78
2023/07/08 01:55:45;;;;;;;3.35;2.42;;;26.80;50.50;;;;;;5113440;28;20050;-78
2023/07/08 01:58:13;;;;;;;1.70;1.50;;;26.80;50.50;;;;;;5113629;28;20055;-77
2023/07/08 02:00:39;;;;;;;2.50;1.75;;;26.80;50.50;;;;;;5113253;28;20047;-78
2023/07/08 02:03:05;;;;;;;4.13;1.95;;;26.80;50.50;;;;;;5112872;28;20024;-79
2023/07/08 02:05:32;;;;;;;4.07;2.10;;;26.90;50.50;;;;;;5112576;28;20126;-78
2023/07/08 02:07:58;;;;;;;4.10;1.77;;;26.80;50.50;;;;;;5096402;28;20131;-78
2023/07/08 02:10:25;;;;;;;4.20;2.00;;;26.80;50.50;;;;;;5092943;28;20085;-75
2023/07/08 02:12:51;;;;;;;2.55;1.98;;;26.80;50.50;;;;;;5110563;28;20502;-76
2023/07/08 02:15:17;;;;;;;2.67;1.83;;;26.80;50.50;;;;;;5112762;28;20043;-75
2023/07/08 02:17:43;;;;;;;3.97;2.08;;;26.90;50.50;;;;;;5110378;28;20440;-76
2023/07/08 02:20:10;;;;;;;3.20;1.70;;;26.90;50.50;;;;;;5114065;28;20097;-75
2023/07/08 02:22:36;;;;;;;1.77;1.50;;;26.80;50.60;;;;;;5112968;28;20038;-78
2023/07/08 02:25:03;;;;;;;4.45;1.70;;;26.80;50.60;;;;;;5112749;28;20464;-78
2023/07/08 02:27:29;;;;;;;2.95;1.85;;;26.70;50.60;;;;;;5113520;27;20348;-78
2023/07/08 02:29:55;;;;;;;2.72;2.00;;;26.80;50.60;;;;;;5112875;28;20023;-77
2023/07/08 02:32:21;;;;;;;2.88;2.17;;;26.80;50.70;;;;;;5112116;27;20535;-78
2023/07/08 02:34:47;;;;;;;1.65;1.55;;;26.60;50.70;;;;;;5113116;28;20031;-75
2023/07/08 02:37:13;;;;;;;3.92;2.05;;;26.70;50.70;;;;;;5112640;28;20471;-76
2023/07/08 02:39:39;;;;;;;1.63;1.42;;;26.70;50.80;;;;;;5114023;28;20073;-76
2023/07/08 02:42:05;;;;;;;2.05;1.42;;;26.80;50.80;;;;;;5112609;28;20477;-76
2023/07/08 02:44:31;;;;;;;4.03;2.13;;;26.70;50.80;;;;;;5113535;28;20058;-76
2023/07/08 02:46:57;;;;;;;5.63;1.90;;;26.60;50.80;;;;;;5111997;28;20039;-76
2023/07/08 02:49:23;;;;;;;5.25;1.73;;;26.80;50.80;;;;;;5111067;28;20495;-76
2023/07/08 02:51:49;;;;;;;2.75;1.77;;;26.70;50.70;;;;;;5113767;28;20114;-76
2023/07/08 02:54:15;;;;;;;2.95;1.90;;;26.80;50.70;;;;;;5113652;28;20118;-75
2023/07/08 02:56:41;;;;;;;4.00;1.80;;;26.60;50.70;;;;;;5112758;28;20031;-76
2023/07/08 02:59:07;;;;;;;1.58;1.40;;;26.80;50.70;;;;;;5113116;28;20023;-76
2023/07/08 03:01:41;;;;;;;1.77;1.48;;;26.80;50.70;;;;;;5110742;28;20055;-76
2023/07/08 03:04:08;;;;;;;2.45;1.50;;;26.90;50.80;;;;;;5095203;28;20430;-76
2023/07/08 03:06:35;;;;;;;5.50;1.75;;;26.80;50.80;;;;;;5112885;28;20528;-76
2023/07/08 03:09:01;;;;;;;1.80;1.17;;;26.80;50.80;;;;;;5113241;28;20036;-75
2023/07/08 03:11:27;;;;;;;3.85;2.15;;;26.90;50.80;;;;;;5113243;28;20043;-76
2023/07/08 03:13:53;;;;;;;1.50;1.40;;;26.90;50.80;;;;;;5112019;28;20439;-76
2023/07/08 03:16:19;;;;;;;2.88;1.98;;;26.90;50.80;;;;;;5108920;28;20035;-76
2023/07/08 03:18:48;;;;;;;1.25;1.00;;;26.90;50.80;;;;;;5113119;28;20032;-76
2023/07/08 03:21:16;;;;;;;1.70;1.35;;;26.90;50.80;;;;;;5088341;28;20388;-77
2023/07/08 03:23:43;;;;;;;3.97;1.70;;;26.90;50.80;;;;;;5091335;28;20039;-76
2023/07/08 03:26:20;;;;;;;2.35;1.85;;;26.90;50.70;;;;;;5090572;28;20035;-78
2023/07/08 03:28:48;;;;;;;4.80;1.85;;;26.90;50.80;;;;;;5118739;27;20080;-78
2023/07/08 03:31:15;;;;;;;4.95;1.85;;;26.90;50.80;;;;;;5110116;28;20038;-78
2023/07/08 03:33:41;;;;;;;2.15;1.20;;;26.80;50.80;;;;;;5113093;28;20031;-78
2023/07/08 03:36:24;;;;;;;5.45;1.45;;;27.00;51.40;;;;;;5112129;28;20110;-78
2023/07/08 03:38:57;;;;;;;2.75;1.63;;;26.80;50.90;;;;;;5094884;28;20039;-78
2023/07/08 03:41:24;;;;;;;2.28;1.88;;;26.70;50.90;;;;;;5111486;28;20484;-78
2023/07/08 03:43:53;;;;;;;5.35;1.80;;;26.70;50.90;;;;;;5112086;28;20042;-78
2023/07/08 03:46:21;;;;;;;2.90;1.52;;;26.70;51.00;;;;;;5108849;28;20126;-78
2023/07/08 03:48:47;;;;;;;2.28;1.50;;;26.70;51.00;;;;;;5069223;28;20068;-78
2023/07/08 03:51:26;;;;;;;0.50;0.50;;;26.70;51.00;;;;;;5066066;28;20151;-78
2023/07/08 03:53:52;;;;;;;3.08;1.50;;;26.70;51.10;;;;;;5069217;28;20044;-78
2023/07/08 03:56:18;;;;;;;1.23;0.47;;;26.60;51.10;;;;;;5052455;28;20094;-78
2023/07/08 03:58:44;;;;;;;1.17;1.00;;;26.70;51.10;;;;;;5018814;28;20170;-78
2023/07/08 04:01:16;;;;;;;1.10;1.02;;;26.70;51.10;;;;;;5002515;28;20057;-76
2023/07/08 04:03:43;;;;;;;5.28;1.98;;;26.70;51.00;;;;;;5052715;28;20051;-75
2023/07/08 04:06:10;;;;;;;3.38;1.90;;;26.90;51.00;;;;;;5052010;28;20044;-76
2023/07/08 04:08:37;;;;;;;2.72;1.75;;;26.80;51.00;;;;;;5068860;28;20104;-76
2023/07/08 04:11:03;;;;;;;2.63;1.35;;;26.80;51.00;;;;;;5068563;28;20431;-76
2023/07/08 04:13:29;;;;;;;0.90;0.63;;;26.80;51.00;;;;;;5029075;28;20053;-76
2023/07/08 04:16:02;;;;;;;0.85;0.77;;;26.80;51.10;;;;;;5027590;28;20037;-76
2023/07/08 04:18:28;;;;;;;;;;;26.80;51.00;;;;;;5046947;28;20052;-76
2023/07/08 04:20:54;;;;;;;3.03;1.33;;;26.80;51.00;;;;;;5048978;28;19920;-76
2023/07/08 04:23:20;;;;;;;3.58;1.88;;;26.80;51.10;;;;;;5034400;28;20046;-75
2023/07/08 04:25:52;;;;;;;1.67;1.58;;;26.80;51.10;;;;;;5040598;28;20087;-75
2023/07/08 04:28:18;;;;;;;1.20;1.10;;;27.00;51.70;;;;;;5073614;28;20118;-76
2023/07/08 04:30:44;;;;;;;5.07;1.58;;;26.90;51.10;;;;;;5087669;28;20036;-75
2023/07/08 04:33:12;;;;;;;2.08;1.60;;;26.90;51.10;;;;;;5088506;28;20534;-78
2023/07/08 04:35:39;;;;;;;0.85;0.70;;;26.90;51.00;;;;;;5088250;28;20071;-78
2023/07/08 04:38:09;;;;;;;1.65;1.42;;;26.90;51.00;;;;;;5088366;28;20044;-76
2023/07/08 04:40:39;;;;;;;1.17;1.08;;;26.80;51.00;;;;;;5085012;28;20050;-76
2023/07/08 04:43:06;;;;;;;3.92;1.30;;;26.90;51.10;;;;;;5088583;28;20073;-76
2023/07/08 04:45:33;;;;;;;1.95;1.77;;;26.80;51.10;;;;;;5111296;27;20039;-76
2023/07/08 04:47:59;;;;;;;3.25;1.65;;;26.80;51.10;;;;;;5129626;28;20154;-76
2023/07/08 04:50:25;;;;;;;3.17;1.50;;;26.80;51.20;;;;;;5129694;28;20065;-76
2023/07/08 04:52:51;;;;;;;2.88;1.80;;;26.80;51.20;;;;;;5129439;28;20042;-76
2023/07/08 04:55:19;;;;;;;1.50;1.40;;;26.70;51.20;;;;;;5127031;27;20038;-76
2023/07/08 04:57:44;;;;;;;1.70;1.60;;;26.80;51.20;;;;;;5126792;27;20035;-76
2023/07/08 05:00:16;;;;;;;1.50;1.38;;;26.80;51.20;;;;;;5104736;28;20111;-76
2023/07/08 05:02:43;;;;;;;3.95;1.88;;;26.70;51.20;;;;;;5111647;28;20031;-78
2023/07/08 05:05:08;;;;;;;2.00;1.42;;;26.70;51.30;;;;;;5109170;28;20028;-78
2023/07/08 05:07:34;;;;;;;1.55;1.45;;;26.70;51.20;;;;;;5111339;28;20590;-78
2023/07/08 05:10:00;;;;;;;4.03;2.10;;;26.70;51.20;;;;;;5108745;28;20082;-78
2023/07/08 05:12:27;;;;;;;3.40;1.95;;;26.80;51.20;;;;;;5107043;28;20063;-79
2023/07/08 05:14:53;;;;;;;1.38;1.00;;;26.90;51.20;;;;;;5115306;28;20486;-76
2023/07/08 05:17:19;;;;;;;3.70;1.10;;;26.90;51.20;;;;;;5102953;28;20021;-78
2023/07/08 05:19:45;;;;;;;1.48;1.38;;;26.90;51.20;;;;;;5096301;28;20433;-78
2023/07/08 05:22:12;;;;;;;3.13;1.55;;;26.80;51.20;;;;;;5109686;28;20363;-79
2023/07/08 05:24:39;;;;;;;4.72;1.80;;;26.80;51.30;;;;;;5076062;28;20487;-79
2023/07/08 05:27:05;;;;;;;1.60;1.23;;;26.80;51.20;;;;;;5111121;28;20046;-76
2023/07/08 05:29:31;;;;;;;0.90;0.90;;;26.80;51.30;;;;;;5111357;28;20388;-76
2023/07/08 05:31:57;;;;;;;2.15;1.58;;;26.80;51.30;;;;;;5109438;28;20039;-77
2023/07/08 05:34:23;;;;;;;1.75;1.27;;;26.80;51.30;;;;;;5111469;28;20024;-76
2023/07/08 05:36:49;;;;;;;2.80;1.20;;;26.80;51.30;;;;;;5109855;28;20032;-76
2023/07/08 05:39:15;;;;;;;2.47;1.30;;;26.80;51.30;;;;;;5101699;28;20381;-76
2023/07/08 05:41:41;;;;;;;3.22;1.58;;;26.90;51.30;;;;;;5107241;28;20032;-76
2023/07/08 05:44:07;;;;;;;1.27;1.17;;;26.90;51.30;;;;;;5111189;28;20391;-76
2023/07/08 05:46:32;;;;;;;2.42;1.30;;;26.90;51.30;;;;;;5108939;28;20114;-77
2023/07/08 05:48:58;;;;;;;1.20;1.10;;;26.80;51.30;;;;;;5109667;28;20498;-74
2023/07/08 05:51:25;;;;;;;1.70;1.60;;;26.90;51.30;;;;;;5109817;28;20039;-79
2023/07/08 05:53:50;;;;;;;2.50;1.23;;;26.80;51.00;;;;;;5113743;28;20040;-75
2023/07/08 05:56:16;;;;;;;1.85;1.10;;;26.90;51.30;;;;;;5113095;28;20110;-73
2023/07/08 05:58:43;;;;;;;0.63;0.63;;;26.80;51.10;;;;;;5111575;28;20073;-76
2023/07/08 06:01:09;;;;;;;4.60;2.10;;;26.80;51.30;;;;;;5111205;27;20031;-76
2023/07/08 06:03:37;;;;;;;3.03;1.70;;;26.80;50.40;;;;;;5113510;28;20037;-75
2023/07/08 06:06:05;;;;;;;3.92;1.30;;;26.70;51.00;;;;;;5113469;28;20054;-76
2023/07/08 06:08:31;;;;;;;4.90;1.65;;;26.60;51.20;;;;;;5111936;28;20480;-76
2023/07/08 06:10:57;;;;;;;2.22;1.60;;;26.60;51.40;;;;;;5112131;28;20036;-77
2023/07/08 06:13:23;;;;;;;0.70;0.70;;;26.60;51.70;;;;;;5113474;27;20055;-74
2023/07/08 06:15:49;;;;;;;3.10;1.45;;;26.80;52.30;;;;;;5109184;28;20058;-79
2023/07/08 06:18:15;;;;;;;1.42;0.47;;;26.70;52.00;;;;;;5096428;28;20028;-76
2023/07/08 06:20:41;;;;;;;6.03;1.88;;;26.70;51.90;;;;;;5113397;28;20038;-74
2023/07/08 06:23:07;;;;;;;1.60;1.30;;;26.70;51.80;;;;;;5111490;28;20032;-77
2023/07/08 06:25:33;;;;;;;1.80;1.20;;;26.70;51.60;;;;;;5108683;28;20098;-74
2023/07/08 06:27:59;;;;;;;1.20;1.10;;;26.60;51.60;;;;;;5113691;28;20422;-75
2023/07/08 06:30:25;;;;;;;2.67;1.73;;;26.80;51.60;;;;;;5112496;28;20112;-76
2023/07/08 06:32:51;;;;;;;1.90;1.70;;;26.80;51.50;;;;;;5111927;28;20034;-74
2023/07/08 06:35:18;;;;;;;2.88;1.38;;;26.80;51.30;;;;;;5111605;28;20036;-78
2023/07/08 06:37:43;;;;;;;1.27;1.08;;;26.80;51.40;;;;;;5087063;28;20085;-78
2023/07/08 06:40:10;;;;;;;2.38;1.80;;;26.80;51.20;;;;;;5109481;28;20135;-77
2023/07/08 06:42:36;;;;;;;3.00;2.10;;;26.80;50.80;;;;;;5093558;28;20030;-78
2023/07/08 06:45:22;;;;;;;2.50;1.83;;;26.90;50.20;;;;;;5087881;28;20064;-77
2023/07/08 06:47:48;;;;;;;1.92;1.77;;;26.90;49.90;;;;;;5073668;28;20480;-77
2023/07/08 06:50:15;;;;;;;3.63;1.70;;;26.80;49.80;;;;;;5056956;28;20055;-77
2023/07/08 06:52:41;;;;;;;3.50;2.00;;;26.90;49.60;;;;;;5073724;28;20159;-77
2023/07/08 06:55:09;;;;;;;2.55;2.03;;;26.80;49.40;;;;;;5088534;28;20024;-77
2023/07/08 06:57:38;;;;;;;3.33;1.90;;;26.90;49.10;;;;;;5073629;28;20044;-79
2023/07/08 07:00:09;;;;;;;5.00;2.08;;;26.90;49.00;;;;;;5071151;28;20040;-80
2023/07/08 07:02:35;;;;;;;2.80;2.20;;;26.90;49.20;;;;;;5090349;28;20043;-80
2023/07/08 07:05:02;;;;;;;2.65;1.88;;;26.90;49.10;;;;;;5090376;28;20419;-80
2023/07/08 07:07:28;;;;;;;3.17;1.90;;;26.80;49.00;;;;;;5079552;28;20041;-80
2023/07/08 07:09:55;;;;;;;3.63;2.00;;;26.70;48.80;;;;;;5070173;28;20116;-77
2023/07/08 07:12:22;;;;;;;2.28;1.90;;;26.80;48.80;;;;;;5070147;28;20041;-80
2023/07/08 07:14:49;;;;;;;4.40;1.98;;;26.80;48.70;;;;;;5070051;28;20112;-80
2023/07/08 07:17:15;;;;;;;2.25;1.88;;;26.70;48.60;;;;;;5087981;28;20677;-80
2023/07/08 07:19:41;;;;;;;5.63;2.70;;;26.70;48.70;;;;;;5056452;28;20125;-78
2023/07/08 07:22:07;;;;;;;2.10;1.67;;;26.60;48.80;;;;;;5085086;28;20108;-78
2023/07/08 07:24:33;;;;;;;4.20;1.98;;;26.70;48.70;;;;;;5125838;27;20043;-76
2023/07/08 07:26:59;;;;;;;2.38;2.08;;;26.70;48.60;;;;;;5112763;28;20030;-77
2023/07/08 07:29:25;;;;;;;19.70;2.17;;;26.80;52.00;;;;;;5113066;28;20040;-77
2023/07/08 07:31:51;;;;;;;3.38;1.70;;;27.00;52.30;;;;;;5109014;28;20122;-79
2023/07/08 07:34:17;;;;;;;2.95;2.03;;;26.90;49.30;;;;;;5109398;28;20043;-77
2023/07/08 07:36:43;;;;;;;3.17;2.05;;;26.90;48.90;;;;;;5112847;28;20028;-80
2023/07/08 07:39:09;;;;;;;2.03;1.83;;;26.90;49.00;;;;;;5108727;28;20221;-80
2023/07/08 07:41:35;;;;;;;3.42;2.10;;;26.80;48.90;;;;;;5109935;28;20036;-78
2023/07/08 07:44:04;;;;;;;4.75;1.70;;;26.70;49.20;;;;;;5109962;28;20043;-79
2023/07/08 07:46:30;;;;;;;3.33;1.75;;;26.90;49.50;;;;;;5112264;28;20031;-81
2023/07/08 07:48:56;;;;;;;2.30;1.70;;;26.90;49.60;;;;;;5113103;27;20484;-80
2023/07/08 07:51:22;;;;;;;2.85;2.08;;;26.80;49.70;;;;;;5110341;28;20107;-82
2023/07/08 07:53:48;;;;;;;2.38;1.63;;;26.90;49.80;;;;;;5111079;28;20043;-83
2023/07/08 07:56:14;;;;;;;8.98;2.10;;;26.90;49.90;;;;;;5112196;28;20039;-79
2023/07/08 07:58:40;;;;;;;3.38;1.85;;;26.80;49.80;;;;;;5108716;28;20114;-82
2023/07/08 08:01:06;;;;;;;5.70;1.50;;;26.80;49.70;;;;;;5110130;28;20605;-83
2023/07/08 08:03:35;;;;;;;2.30;1.70;;;26.90;49.70;;;;;;5111515;28;20116;-83
2023/07/08 08:06:00;;;;;;;1.65;1.55;;;26.90;49.80;;;;;;5108214;28;20506;-84
2023/07/08 08:08:26;;;;;;;3.10;1.58;;;26.90;49.90;;;;;;5108921;28;20074;-81
2023/07/08 08:10:52;;;;;;;2.55;1.90;;;26.90;50.00;;;;;;5121562;27;20047;-81
2023/07/08 08:13:19;;;;;;;1.65;1.23;;;26.80;50.40;;;;;;5104603;28;20039;-79
2023/07/08 08:15:44;;;;;;;3.42;2.10;;;26.80;50.30;;;;;;5110309;28;20035;-82
2023/07/08 08:18:11;;;;;;;1.70;1.60;;;26.80;50.60;;;;;;5109016;28;20042;-83
2023/07/08 08:20:37;;;;;;;3.00;2.00;;;26.90;50.50;;;;;;5106035;28;20054;-82
2023/07/08 08:23:03;;;;;;;1.85;1.63;;;26.80;50.40;;;;;;5112309;28;20047;-83
2023/07/08 08:25:29;;;;;;;4.85;2.53;;;26.90;50.50;;;;;;5099700;28;20028;-84
2023/07/08 08:27:55;;;;;;;4.65;1.92;;;26.80;50.50;;;;;;5092183;28;20035;-85
2023/07/08 08:30:21;;;;;;;5.85;2.20;;;26.80;50.80;;;;;;5091176;28;20090;-85
2023/07/08 08:32:47;;;;;;;2.60;1.90;;;26.80;50.80;;;;;;5098660;28;20019;-80
2023/07/08 08:35:13;;;;;;;2.35;2.03;;;26.80;51.00;;;;;;5109981;28;20023;-79
2023/07/08 08:37:39;;;;;;;1.90;1.67;;;26.70;50.90;;;;;;5093373;28;20071;-77
2023/07/08 08:40:06;;;;;;;3.60;1.77;;;26.80;50.80;;;;;;5109959;28;20423;-80
2023/07/08 08:42:53;;;;;;;2.35;1.90;;;26.80;50.80;;;;;;5111834;28;20040;-80
2023/07/08 08:45:21;;;;;;;2.78;2.13;;;26.80;50.90;;;;;;5111481;28;20075;-79
2023/07/08 08:47:51;;;;;;;5.05;1.60;;;26.80;50.80;;;;;;5107578;28;20035;-79
2023/07/08 08:50:29;;;;;;;1.85;1.67;;;26.70;50.80;;;;;;5109357;28;20070;-79
2023/07/08 08:52:56;;;;;;;3.60;1.92;;;26.70;50.40;;;;;;5106289;28;20036;-78
2023/07/08 08:55:24;;;;;;;5.13;2.13;;;26.80;50.70;;;;;;5109555;28;20059;-75
2023/07/08 08:58:25;;;;;;;3.03;1.88;;;26.90;50.50;;;;;;5111353;28;20046;-74
2023/07/08 09:00:57;;;;;;;6.10;2.10;;;26.90;50.80;;;;;;5111288;28;20047;-75
2023/07/08 09:04:01;;;;;;;2.88;1.73;;;26.90;50.60;;;;;;5109415;28;20030;-86
2023/07/08 09:06:34;;;;;;;4.25;1.90;;;26.80;50.10;;;;;;5069915;28;20041;-80
2023/07/08 09:09:20;;;;;;;4.47;1.52;;;26.80;50.70;;;;;;5081063;28;20036;-78
2023/07/08 09:11:58;;;;;;;6.13;1.63;;;26.70;50.60;;;;;;5071702;28;20040;-77
2023/07/08 09:14:28;;;;;;;1.77;1.60;;;26.80;50.70;;;;;;5088574;28;20044;-80
2023/07/08 09:17:07;;;;;;;3.65;2.17;;;26.80;50.40;;;;;;5054533;28;20139;-80
2023/07/08 09:19:40;;;;;;;7.13;2.20;;;26.80;50.70;;;;;;5089293;28;20043;-78
2023/07/08 09:22:21;;;;;;;2.17;1.73;;;26.90;50.80;;;;;;5088527;28;20036;-79
2023/07/08 09:24:58;;;;;;;5.10;2.40;;;26.90;50.60;;;;;;5088305;28;20047;-77
2023/07/08 09:27:24;;;;;;;5.32;1.95;;;26.80;51.20;;;;;;5090819;28;20038;-79
2023/07/08 09:29:50;;;;;;;6.05;2.67;;;26.80;51.30;;;;;;5091561;28;20060;-79
2023/07/08 09:32:24;;;;;;;3.00;1.77;;;26.90;51.20;;;;;;5074766;28;20044;-80
2023/07/08 09:35:05;;;;;;;3.42;2.60;;;26.90;51.10;;;;;;5090771;28;20048;-76
2023/07/08 09:37:33;;;;;;;3.47;1.90;;;26.80;51.20;;;;;;5092147;28;20036;-77
2023/07/08 09:40:03;;;;;;;2.10;1.90;;;26.80;51.10;;;;;;5053632;28;20047;-76
2023/07/08 09:42:34;;;;;;;3.28;2.47;;;26.80;51.20;;;;;;5075605;28;20495;-77
2023/07/08 09:45:05;;;;;;;3.08;2.78;;;27.00;51.70;;;;;;5094202;28;20384;-75
2023/07/08 09:47:37;;;;;;;2.30;2.10;;;26.90;51.10;;;;;;5094383;28;20032;-76
2023/07/08 09:50:27;;;;;;;3.70;2.25;;;26.90;51.10;;;;;;5112327;28;20617;-71
2023/07/08 09:53:04;;;;;;;3.17;2.35;;;27.00;51.60;;;;;;5123362;27;20472;-75
2023/07/08 09:55:31;;;;;;;3.50;2.17;;;26.90;51.60;;;;;;5112314;28;20035;-74
2023/07/08 09:58:01;;;;;;;3.25;1.50;;;26.90;52.40;;;;;;5113425;28;20035;-76
2023/07/08 10:00:35;;;;;;;6.85;2.58;;;26.90;52.50;;;;;;5112894;28;20483;-74
2023/07/08 10:03:20;;;;;;;4.85;2.65;;;27.00;53.80;;;;;;5109361;28;20024;-72
2023/07/08 10:05:51;;;;;;;7.43;1.80;;;26.90;55.30;;;;;;5112462;27;20038;-72
2023/07/08 10:08:20;;;;;;;6.68;3.25;;;27.20;57.70;;;;;;5125112;27;20482;-75
2023/07/08 10:10:50;;;;;;;4.93;2.53;;;27.20;55.10;;;;;;5131414;27;20053;-74
2023/07/08 10:13:22;;;;;;;4.65;2.55;;;27.20;54.00;;;;;;5128079;27;20440;-73
2023/07/08 10:16:06;;;;;;;2.00;1.80;;;27.20;53.60;;;;;;5130174;27;20057;-74
2023/07/08 10:18:32;;;;;;;3.35;2.10;;;27.20;53.30;;;;;;5129508;27;20042;-71
2023/07/08 10:21:12;;;;;;;2.42;1.70;;;27.10;53.00;;;;;;5130994;27;20031;-73
2023/07/08 10:24:14;;;;;;;2.47;2.05;;;27.30;52.70;;;;;;5131648;27;20051;-74
2023/07/08 10:26:41;;;;;;;2.30;1.88;;;27.20;52.60;;;;;;5127832;27;20111;-73
2023/07/08 10:29:16;;;;;;;2.35;2.08;;;27.20;52.40;;;;;;5060685;28;20039;-74
2023/07/08 10:32:00;;;;;;;2.88;2.17;;;27.30;52.30;;;;;;5129450;27;20034;-75
2023/07/08 10:34:51;;;;;;;3.33;2.50;;;27.20;52.40;;;;;;5129813;27;20047;-75
2023/07/08 10:37:35;;;;;;;7.65;2.25;;;27.30;52.40;;;;;;5129244;27;20059;-73
2023/07/08 10:40:21;;;;;;;4.90;1.63;;;27.50;52.10;;;;;;5092517;28;20043;-73
2023/07/08 10:43:23;;;;;;;3.97;2.13;;;27.30;51.80;;;;;;5112911;28;20039;-72
2023/07/08 10:46:01;;;;;;;2.63;2.42;;;27.30;51.70;;;;;;5109109;28;20051;-73
2023/07/08 10:48:36;;;;;;;3.15;1.80;;;27.30;51.40;;;;;;5107457;28;20037;-73
2023/07/08 10:51:05;;;;;;;4.70;2.13;;;27.50;50.90;;;;;;5111398;28;20043;-74
2023/07/08 10:53:57;;;;;;;3.67;1.90;;;27.40;50.80;;;;;;5104504;28;20116;-76
2023/07/08 10:56:37;;;;;;;2.50;2.03;;;27.50;50.80;;;;;;5107923;28;20035;-75
2023/07/08 10:59:36;;;;;;;2.20;2.00;;;27.50;50.50;;;;;;5103309;28;20023;-74
2023/07/08 11:02:20;;;;;;;1.70;1.45;;;27.40;50.20;;;;;;5080658;28;20044;-70
2023/07/08 11:05:09;;;;;;;3.85;1.88;;;27.50;49.80;;;;;;5089762;28;20028;-74
2023/07/08 11:07:47;;;;;;;4.88;3.33;;;27.40;49.50;;;;;;5088947;28;20060;-74
2023/07/08 11:10:26;;;;;;;9.40;7.13;;;27.60;48.90;;;;;;5085600;28;20499;-73
2023/07/08 11:13:01;;;;;;;33.70;16.83;;;27.50;49.10;;;;;;5086033;28;20182;-73
2023/07/08 11:15:42;;;;;;;39.10;20.50;;;27.40;49.20;;;;;;5073228;28;20061;-75
2023/07/08 11:18:35;;;;;;;34.45;17.60;;;27.40;49.00;;;;;;5087147;28;20036;-77
2023/07/08 11:21:13;;;;;;;53.25;34.97;;;27.60;49.00;;;;;;5084266;28;20052;-75
2023/07/08 11:24:06;;;;;;;55.13;24.83;;;27.50;48.80;;;;;;5088416;28;20455;-73
2023/07/08 11:26:40;;;;;;;52.97;28.63;;;27.50;48.90;;;;;;5002326;28;20041;-72
2023/07/08 11:29:39;;;;;;;36.00;15.00;;;27.50;48.60;;;;;;5007528;28;21021;-72
2023/07/08 11:32:14;;;;;;;14.23;9.43;;;27.50;48.10;;;;;;5007974;28;20124;-72
2023/07/08 11:34:42;;;;;;;2.25;1.85;;;27.50;47.70;;;;;;5010358;28;20041;-73
2023/07/08 11:37:11;;;;;;;2.63;2.15;;;27.50;61.90;;;;;;5014119;28;20038;-72
2023/07/08 11:39:45;;;;;;;2.97;1.88;;;27.60;56.20;;;;;;5023995;28;20049;-74
2023/07/08 11:42:23;;;;;;;1.10;0.88;;;27.60;53.90;;;;;;5029476;28;20746;-74
2023/07/08 11:44:56;;;;;;;2.17;1.98;;;27.60;52.20;;;;;;5026667;28;20133;-72
2023/07/08 11:47:46;;;;;;;1.50;1.40;;;27.60;50.90;;;;;;5028301;28;20034;-72
2023/07/08 11:50:30;;;;;;;2.22;1.70;;;27.50;51.30;;;;;;5008613;28;20034;-70
2023/07/08 11:52:59;;;;;;;5.00;1.90;;;27.60;50.80;;;;;;5013541;28;20045;-76
2023/07/08 11:55:35;;;;;;;2.05;1.50;;;27.60;49.80;;;;;;5028410;28;20033;-78
2023/07/08 11:58:05;;;;;;;2.22;1.80;;;27.70;51.60;;;;;;5020390;28;20770;-78
2023/07/08 12:00:33;;;;;;;5.65;2.03;;;27.90;51.80;;;;;;4998792;28;20076;-76
2023/07/08 12:03:17;;;;;;;3.65;1.73;;;27.90;53.00;;;;;;5057590;28;20044;-81
2023/07/08 12:05:43;;;;;;;3.05;2.22;;;27.90;53.20;;;;;;5105933;28;20111;-79
2023/07/08 12:08:18;;;;;;;4.95;1.95;;;27.90;53.70;;;;;;5108995;28;20118;-78
2023/07/08 12:10:51;;;;;;;5.53;1.98;;;27.90;54.60;;;;;;5111488;27;20139;-79
2023/07/08 12:13:24;;;;;;;3.10;2.25;;;28.00;55.00;;;;;;5108728;28;20056;-80
2023/07/08 12:15:51;;;;;;;3.53;1.70;;;28.00;54.90;;;;;;5095172;28;20039;-77
2023/07/08 12:18:24;;;;;;;3.00;2.47;;;28.20;53.20;;;;;;5117603;27;20088;-76
2023/07/08 12:20:57;;;;;;;2.20;1.42;;;28.20;51.20;;;;;;5109760;27;20043;-78
2023/07/08 12:23:25;;;;;;;3.50;2.08;;;28.10;51.00;;;;;;5108555;28;20071;-76
2023/07/08 12:25:52;;;;;;;2.90;1.88;;;28.20;53.30;;;;;;5112012;28;20383;-77
2023/07/08 12:28:19;;;;;;;2.33;2.00;;;28.20;56.30;;;;;;5111971;28;20054;-78
2023/07/08 12:30:46;;;;;;;2.88;1.98;;;28.10;55.70;;;;;;5107452;28;20035;-77
2023/07/08 12:33:34;;;;;;;4.65;2.25;;;28.30;57.70;;;;;;5110632;28;20126;-79
2023/07/08 12:36:02;;;;;;;7.38;2.95;;;28.20;58.80;;;;;;5109805;28;20062;-75
2023/07/08 12:38:32;;;;;;;3.80;2.20;;;28.40;59.00;;;;;;5108604;28;20063;-76
2023/07/08 12:41:01;;;;;;;7.00;2.10;;;28.40;59.90;;;;;;5111864;28;20459;-76
2023/07/08 12:43:27;;;;;;;6.35;2.67;;;28.40;58.90;;;;;;5107901;28;20036;-74
2023/07/08 12:45:53;;;;;;;4.25;1.40;;;28.40;55.60;;;;;;5109301;28;20058;-77
2023/07/08 12:48:19;;;;;;;0.80;0.80;;;28.50;54.00;;;;;;5110066;28;20027;-75
2023/07/08 12:50:45;;;;;;;1.23;1.20;;;28.40;51.40;;;;;;5116595;28;20057;-75
2023/07/08 12:53:12;;;;;;;1.40;1.30;;;28.50;49.80;;;;;;5112118;28;20467;-74
2023/07/08 12:55:44;;;;;;;1.13;0.82;;;28.30;49.10;;;;;;5109325;28;20039;-75
2023/07/08 12:58:20;;;;;;;1.75;1.45;;;28.50;48.60;;;;;;5111618;28;20115;-75
2023/07/08 13:00:46;;;;;;;4.85;1.42;;;28.30;48.10;;;;;;5108365;28;20514;-74